sensor_id;sensor_type;location;lat;lon;timestamp;P1;durP1;ratioP1;P2;durP2;ratioP2
23142;SDS011;11740;51.168;4.112;2023-12-22T00:02:19;21.15;;;3.45;;
23142;SDS011;11740;51.168;4.112;2023-12-22T00:04:46;19.63;;;4.03;;
23142;SDS011;11740;51.168;4.112;2023-12-22T00:07:13;16.80;;;2.95;;
23142;SDS011;11740;51.168;4.112;2023-12-22T00:09:40;17.60;;;3.70;;
23142;SDS011;11740;51.168;4.112;2023-12-22T00:12:07;17.60;;;3.42;;
23142;SDS011;11740;51.168;4.112;2023-12-22T00:14:34;12.48;;;2.70;;
23142;SDS011;11740;51.168;4.112;2023-12-22T00:17:01;21.52;;;3.60;;
23142;SDS011;11740;51.168;4.112;2023-12-22T00:19:28;20.00;;;3.72;;
23142;SDS011;11740;51.168;4.112;2023-12-22T00:21:55;16.83;;;3.80;;
23142;SDS011;11740;51.168;4.112;2023-12-22T00:24:22;14.20;;;3.38;;
23142;SDS011;11740;51.168;4.112;2023-12-22T00:26:50;16.88;;;3.15;;
23142;SDS011;11740;51.168;4.112;2023-12-22T00:29:16;14.15;;;2.63;;
23142;SDS011;11740;51.168;4.112;2023-12-22T00:31:46;16.77;;;3.13;;
23142;SDS011;11740;51.168;4.112;2023-12-22T00:34:13;18.13;;;3.47;;
23142;SDS011;11740;51.168;4.112;2023-12-22T00:36:40;16.35;;;3.58;;
23142;SDS011;11740;51.168;4.112;2023-12-22T00:39:07;21.20;;;4.10;;
23142;SDS011;11740;51.168;4.112;2023-12-22T00:41:35;26.38;;;4.13;;
23142;SDS011;11740;51.168;4.112;2023-12-22T00:44:02;19.48;;;4.10;;
23142;SDS011;11740;51.168;4.112;2023-12-22T00:46:28;25.08;;;4.53;;
23142;SDS011;11740;51.168;4.112;2023-12-22T00:48:55;21.30;;;4.43;;
23142;SDS011;11740;51.168;4.112;2023-12-22T00:51:22;25.05;;;4.53;;
23142;SDS011;11740;51.168;4.112;2023-12-22T00:53:49;27.58;;;4.80;;
23142;SDS011;11740;51.168;4.112;2023-12-22T00:56:16;24.48;;;5.25;;
23142;SDS011;11740;51.168;4.112;2023-12-22T00:58:43;25.23;;;4.43;;
23142;SDS011;11740;51.168;4.112;2023-12-22T01:01:20;18.90;;;3.95;;
23142;SDS011;11740;51.168;4.112;2023-12-22T01:03:47;18.67;;;4.40;;
23142;SDS011;11740;51.168;4.112;2023-12-22T01:06:14;18.95;;;3.67;;
23142;SDS011;11740;51.168;4.112;2023-12-22T01:08:41;22.75;;;3.97;;
23142;SDS011;11740;51.168;4.112;2023-12-22T01:11:08;20.05;;;4.18;;
23142;SDS011;11740;51.168;4.112;2023-12-22T01:13:35;19.10;;;4.07;;
23142;SDS011;11740;51.168;4.112;2023-12-22T01:16:02;23.38;;;4.13;;
23142;SDS011;11740;51.168;4.112;2023-12-22T01:18:29;19.98;;;3.83;;
23142;SDS011;11740;51.168;4.112;2023-12-22T01:20:56;24.67;;;4.72;;
23142;SDS011;11740;51.168;4.112;2023-12-22T01:23:23;25.38;;;4.18;;
23142;SDS011;11740;51.168;4.112;2023-12-22T01:25:51;21.60;;;4.70;;
23142;SDS011;11740;51.168;4.112;2023-12-22T01:28:18;22.98;;;3.88;;
23142;SDS011;11740;51.168;4.112;2023-12-22T01:30:45;26.83;;;4.85;;
23142;SDS011;11740;51.168;4.112;2023-12-22T01:33:12;19.02;;;4.13;;
23142;SDS011;11740;51.168;4.112;2023-12-22T01:35:39;24.00;;;4.68;;
23142;SDS011;11740;51.168;4.112;2023-12-22T01:38:06;21.40;;;4.15;;
23142;SDS011;11740;51.168;4.112;2023-12-22T01:40:33;24.40;;;3.97;;
23142;SDS011;11740;51.168;4.112;2023-12-22T01:43:01;24.27;;;4.38;;
23142;SDS011;11740;51.168;4.112;2023-12-22T01:45:28;18.42;;;4.50;;
23142;SDS011;11740;51.168;4.112;2023-12-22T01:47:55;18.05;;;3.97;;
23142;SDS011;11740;51.168;4.112;2023-12-22T01:50:22;17.67;;;3.92;;
23142;SDS011;11740;51.168;4.112;2023-12-22T01:52:49;18.25;;;3.70;;
23142;SDS011;11740;51.168;4.112;2023-12-22T01:55:16;20.52;;;4.40;;
23142;SDS011;11740;51.168;4.112;2023-12-22T01:57:44;24.90;;;4.28;;
23142;SDS011;11740;51.168;4.112;2023-12-22T02:00:13;23.17;;;4.68;;
23142;SDS011;11740;51.168;4.112;2023-12-22T02:02:41;19.83;;;3.80;;
23142;SDS011;11740;51.168;4.112;2023-12-22T02:05:10;19.15;;;4.03;;
23142;SDS011;11740;51.168;4.112;2023-12-22T02:07:41;19.92;;;4.15;;
23142;SDS011;11740;51.168;4.112;2023-12-22T02:10:09;20.83;;;3.70;;
23142;SDS011;11740;51.168;4.112;2023-12-22T02:12:37;15.23;;;3.47;;
23142;SDS011;11740;51.168;4.112;2023-12-22T02:15:04;23.45;;;3.83;;
23142;SDS011;11740;51.168;4.112;2023-12-22T02:20:17;17.00;;;3.50;;
23142;SDS011;11740;51.168;4.112;2023-12-22T02:22:44;14.07;;;2.78;;
23142;SDS011;11740;51.168;4.112;2023-12-22T02:25:11;17.40;;;3.20;;
23142;SDS011;11740;51.168;4.112;2023-12-22T02:27:48;19.52;;;3.28;;
23142;SDS011;11740;51.168;4.112;2023-12-22T02:31:02;15.35;;;2.55;;
23142;SDS011;11740;51.168;4.112;2023-12-22T02:33:36;14.85;;;3.03;;
23142;SDS011;11740;51.168;4.112;2023-12-22T02:36:05;14.50;;;2.80;;
23142;SDS011;11740;51.168;4.112;2023-12-22T02:38:33;14.13;;;3.08;;
23142;SDS011;11740;51.168;4.112;2023-12-22T02:41:02;20.95;;;3.50;;
23142;SDS011;11740;51.168;4.112;2023-12-22T02:43:29;14.88;;;3.42;;
23142;SDS011;11740;51.168;4.112;2023-12-22T02:45:56;18.52;;;3.97;;
23142;SDS011;11740;51.168;4.112;2023-12-22T02:48:23;19.40;;;3.60;;
23142;SDS011;11740;51.168;4.112;2023-12-22T02:50:50;18.17;;;3.67;;
23142;SDS011;11740;51.168;4.112;2023-12-22T02:53:16;16.75;;;3.65;;
23142;SDS011;11740;51.168;4.112;2023-12-22T02:55:43;18.42;;;3.60;;
23142;SDS011;11740;51.168;4.112;2023-12-22T02:58:10;20.10;;;3.92;;
23142;SDS011;11740;51.168;4.112;2023-12-22T03:00:37;17.05;;;3.22;;
23142;SDS011;11740;51.168;4.112;2023-12-22T03:03:04;20.13;;;4.07;;
23142;SDS011;11740;51.168;4.112;2023-12-22T03:05:31;16.77;;;3.70;;
23142;SDS011;11740;51.168;4.112;2023-12-22T03:07:58;21.13;;;4.30;;
23142;SDS011;11740;51.168;4.112;2023-12-22T03:10:25;24.67;;;4.78;;
23142;SDS011;11740;51.168;4.112;2023-12-22T03:12:52;28.13;;;5.57;;
23142;SDS011;11740;51.168;4.112;2023-12-22T03:15:19;22.85;;;5.25;;
23142;SDS011;11740;51.168;4.112;2023-12-22T03:17:45;21.45;;;4.50;;
23142;SDS011;11740;51.168;4.112;2023-12-22T03:20:13;32.40;;;5.13;;
23142;SDS011;11740;51.168;4.112;2023-12-22T03:22:40;26.98;;;4.63;;
23142;SDS011;11740;51.168;4.112;2023-12-22T03:25:06;29.85;;;5.03;;
23142;SDS011;11740;51.168;4.112;2023-12-22T03:27:33;25.40;;;5.25;;
23142;SDS011;11740;51.168;4.112;2023-12-22T03:30:00;20.45;;;4.30;;
23142;SDS011;11740;51.168;4.112;2023-12-22T03:32:28;29.60;;;4.85;;
23142;SDS011;11740;51.168;4.112;2023-12-22T03:34:55;23.88;;;4.68;;
23142;SDS011;11740;51.168;4.112;2023-12-22T03:37:22;23.90;;;5.32;;
23142;SDS011;11740;51.168;4.112;2023-12-22T03:39:49;21.73;;;4.30;;
23142;SDS011;11740;51.168;4.112;2023-12-22T03:42:16;22.27;;;4.28;;
23142;SDS011;11740;51.168;4.112;2023-12-22T03:44:43;19.90;;;4.18;;
23142;SDS011;11740;51.168;4.112;2023-12-22T03:47:10;19.20;;;3.92;;
23142;SDS011;11740;51.168;4.112;2023-12-22T03:49:37;20.15;;;3.78;;
23142;SDS011;11740;51.168;4.112;2023-12-22T03:52:04;23.88;;;4.75;;
23142;SDS011;11740;51.168;4.112;2023-12-22T03:54:31;27.33;;;5.05;;
23142;SDS011;11740;51.168;4.112;2023-12-22T03:56:57;30.63;;;4.70;;
23142;SDS011;11740;51.168;4.112;2023-12-22T03:59:24;32.22;;;5.82;;
23142;SDS011;11740;51.168;4.112;2023-12-22T04:01:51;24.23;;;4.55;;
23142;SDS011;11740;51.168;4.112;2023-12-22T04:04:19;28.02;;;5.35;;
23142;SDS011;11740;51.168;4.112;2023-12-22T04:06:49;27.33;;;5.10;;
23142;SDS011;11740;51.168;4.112;2023-12-22T04:09:16;23.10;;;4.30;;
23142;SDS011;11740;51.168;4.112;2023-12-22T04:11:43;29.92;;;5.70;;
23142;SDS011;11740;51.168;4.112;2023-12-22T04:14:09;28.90;;;5.47;;
23142;SDS011;11740;51.168;4.112;2023-12-22T04:16:37;29.55;;;4.97;;
23142;SDS011;11740;51.168;4.112;2023-12-22T04:19:06;30.20;;;5.28;;
23142;SDS011;11740;51.168;4.112;2023-12-22T04:21:37;35.15;;;5.60;;
23142;SDS011;11740;51.168;4.112;2023-12-22T04:24:04;38.85;;;5.88;;
23142;SDS011;11740;51.168;4.112;2023-12-22T04:26:31;36.53;;;5.72;;
23142;SDS011;11740;51.168;4.112;2023-12-22T04:28:58;32.13;;;5.82;;
23142;SDS011;11740;51.168;4.112;2023-12-22T04:31:25;30.23;;;5.28;;
23142;SDS011;11740;51.168;4.112;2023-12-22T04:33:52;32.05;;;6.45;;
23142;SDS011;11740;51.168;4.112;2023-12-22T04:36:19;25.63;;;5.32;;
23142;SDS011;11740;51.168;4.112;2023-12-22T04:38:46;30.90;;;5.93;;
23142;SDS011;11740;51.168;4.112;2023-12-22T04:41:13;35.05;;;6.13;;
23142;SDS011;11740;51.168;4.112;2023-12-22T04:43:40;37.42;;;6.63;;
23142;SDS011;11740;51.168;4.112;2023-12-22T04:46:07;30.27;;;6.22;;
23142;SDS011;11740;51.168;4.112;2023-12-22T04:48:34;31.00;;;6.18;;
23142;SDS011;11740;51.168;4.112;2023-12-22T04:51:01;29.58;;;5.50;;
23142;SDS011;11740;51.168;4.112;2023-12-22T04:53:28;34.55;;;6.45;;
23142;SDS011;11740;51.168;4.112;2023-12-22T04:55:55;27.20;;;6.30;;
23142;SDS011;11740;51.168;4.112;2023-12-22T04:58:22;38.45;;;7.20;;
23142;SDS011;11740;51.168;4.112;2023-12-22T05:00:50;25.38;;;5.70;;
23142;SDS011;11740;51.168;4.112;2023-12-22T05:03:17;32.00;;;6.30;;
23142;SDS011;11740;51.168;4.112;2023-12-22T05:05:44;37.85;;;6.88;;
23142;SDS011;11740;51.168;4.112;2023-12-22T05:08:11;34.85;;;6.05;;
23142;SDS011;11740;51.168;4.112;2023-12-22T05:10:38;33.50;;;5.90;;
23142;SDS011;11740;51.168;4.112;2023-12-22T05:13:05;29.30;;;6.07;;
23142;SDS011;11740;51.168;4.112;2023-12-22T05:15:31;33.05;;;6.18;;
23142;SDS011;11740;51.168;4.112;2023-12-22T05:17:59;39.88;;;5.95;;
23142;SDS011;11740;51.168;4.112;2023-12-22T05:20:26;32.72;;;5.55;;
23142;SDS011;11740;51.168;4.112;2023-12-22T05:22:53;33.05;;;6.13;;
23142;SDS011;11740;51.168;4.112;2023-12-22T05:25:20;39.53;;;6.60;;
23142;SDS011;11740;51.168;4.112;2023-12-22T05:27:46;31.13;;;5.78;;
23142;SDS011;11740;51.168;4.112;2023-12-22T05:30:14;37.15;;;6.00;;
23142;SDS011;11740;51.168;4.112;2023-12-22T05:32:41;38.35;;;5.95;;
23142;SDS011;11740;51.168;4.112;2023-12-22T05:35:08;31.52;;;6.03;;
23142;SDS011;11740;51.168;4.112;2023-12-22T05:37:36;37.00;;;5.40;;
23142;SDS011;11740;51.168;4.112;2023-12-22T05:40:03;29.23;;;5.30;;
23142;SDS011;11740;51.168;4.112;2023-12-22T05:42:33;30.02;;;5.05;;
23142;SDS011;11740;51.168;4.112;2023-12-22T05:44:59;32.70;;;5.70;;
23142;SDS011;11740;51.168;4.112;2023-12-22T05:47:26;30.67;;;5.18;;
23142;SDS011;11740;51.168;4.112;2023-12-22T05:49:53;25.02;;;4.15;;
23142;SDS011;11740;51.168;4.112;2023-12-22T05:52:20;29.48;;;5.07;;
23142;SDS011;11740;51.168;4.112;2023-12-22T05:54:47;27.27;;;4.88;;
23142;SDS011;11740;51.168;4.112;2023-12-22T05:57:14;27.83;;;4.95;;
23142;SDS011;11740;51.168;4.112;2023-12-22T05:59:41;23.20;;;4.18;;
23142;SDS011;11740;51.168;4.112;2023-12-22T06:02:08;23.45;;;4.30;;
23142;SDS011;11740;51.168;4.112;2023-12-22T06:04:35;24.55;;;4.13;;
23142;SDS011;11740;51.168;4.112;2023-12-22T06:07:02;28.65;;;5.07;;
23142;SDS011;11740;51.168;4.112;2023-12-22T06:09:29;25.35;;;4.38;;
23142;SDS011;11740;51.168;4.112;2023-12-22T06:11:56;20.90;;;4.18;;
23142;SDS011;11740;51.168;4.112;2023-12-22T06:14:24;22.55;;;4.75;;
23142;SDS011;11740;51.168;4.112;2023-12-22T06:16:51;26.10;;;4.35;;
23142;SDS011;11740;51.168;4.112;2023-12-22T06:19:20;20.58;;;4.05;;
23142;SDS011;11740;51.168;4.112;2023-12-22T06:21:48;14.30;;;3.25;;
23142;SDS011;11740;51.168;4.112;2023-12-22T06:24:15;18.73;;;3.42;;
23142;SDS011;11740;51.168;4.112;2023-12-22T06:26:42;19.35;;;4.35;;
23142;SDS011;11740;51.168;4.112;2023-12-22T06:29:09;22.23;;;4.50;;
23142;SDS011;11740;51.168;4.112;2023-12-22T06:31:36;18.98;;;4.15;;
23142;SDS011;11740;51.168;4.112;2023-12-22T06:34:03;21.13;;;3.58;;
23142;SDS011;11740;51.168;4.112;2023-12-22T06:36:31;21.65;;;4.05;;
23142;SDS011;11740;51.168;4.112;2023-12-22T06:38:58;18.00;;;3.42;;
23142;SDS011;11740;51.168;4.112;2023-12-22T06:41:26;15.90;;;3.00;;
23142;SDS011;11740;51.168;4.112;2023-12-22T06:43:57;15.52;;;2.83;;
23142;SDS011;11740;51.168;4.112;2023-12-22T06:46:28;12.73;;;2.88;;
23142;SDS011;11740;51.168;4.112;2023-12-22T06:48:55;15.27;;;2.75;;
23142;SDS011;11740;51.168;4.112;2023-12-22T06:51:24;17.02;;;2.95;;
23142;SDS011;11740;51.168;4.112;2023-12-22T06:54:02;16.65;;;3.22;;
23142;SDS011;11740;51.168;4.112;2023-12-22T06:56:32;17.20;;;3.47;;
23142;SDS011;11740;51.168;4.112;2023-12-22T06:59:00;15.55;;;2.88;;
23142;SDS011;11740;51.168;4.112;2023-12-22T07:01:28;18.92;;;3.75;;
23142;SDS011;11740;51.168;4.112;2023-12-22T07:03:58;17.67;;;4.10;;
23142;SDS011;11740;51.168;4.112;2023-12-22T07:06:34;16.75;;;3.58;;
23142;SDS011;11740;51.168;4.112;2023-12-22T07:11:47;22.33;;;4.18;;
23142;SDS011;11740;51.168;4.112;2023-12-22T07:14:16;18.75;;;4.00;;
23142;SDS011;11740;51.168;4.112;2023-12-22T07:16:43;21.25;;;4.13;;
23142;SDS011;11740;51.168;4.112;2023-12-22T07:19:11;23.42;;;4.15;;
23142;SDS011;11740;51.168;4.112;2023-12-22T07:21:41;17.60;;;3.63;;
23142;SDS011;11740;51.168;4.112;2023-12-22T07:24:12;21.63;;;3.83;;
23142;SDS011;11740;51.168;4.112;2023-12-22T07:26:41;19.98;;;3.78;;
23142;SDS011;11740;51.168;4.112;2023-12-22T07:29:08;21.63;;;3.53;;
23142;SDS011;11740;51.168;4.112;2023-12-22T07:31:36;14.70;;;3.53;;
23142;SDS011;11740;51.168;4.112;2023-12-22T07:34:02;14.20;;;2.92;;
23142;SDS011;11740;51.168;4.112;2023-12-22T07:36:29;14.40;;;2.72;;
23142;SDS011;11740;51.168;4.112;2023-12-22T07:38:56;13.10;;;2.70;;
23142;SDS011;11740;51.168;4.112;2023-12-22T07:41:24;11.85;;;2.45;;
23142;SDS011;11740;51.168;4.112;2023-12-22T07:43:51;13.27;;;2.20;;
23142;SDS011;11740;51.168;4.112;2023-12-22T07:46:20;10.38;;;2.13;;
23142;SDS011;11740;51.168;4.112;2023-12-22T07:48:49;12.93;;;2.05;;
23142;SDS011;11740;51.168;4.112;2023-12-22T07:51:18;11.57;;;2.70;;
23142;SDS011;11740;51.168;4.112;2023-12-22T07:53:45;13.32;;;2.97;;
23142;SDS011;11740;51.168;4.112;2023-12-22T07:56:12;7.80;;;2.40;;
23142;SDS011;11740;51.168;4.112;2023-12-22T07:58:39;11.77;;;2.35;;
23142;SDS011;11740;51.168;4.112;2023-12-22T08:01:06;12.63;;;2.38;;
23142;SDS011;11740;51.168;4.112;2023-12-22T08:03:33;5.10;;;1.88;;
23142;SDS011;11740;51.168;4.112;2023-12-22T08:06:00;11.70;;;2.00;;
23142;SDS011;11740;51.168;4.112;2023-12-22T08:08:28;7.03;;;2.30;;
23142;SDS011;11740;51.168;4.112;2023-12-22T08:10:55;7.97;;;2.47;;
23142;SDS011;11740;51.168;4.112;2023-12-22T08:13:22;8.95;;;2.35;;
23142;SDS011;11740;51.168;4.112;2023-12-22T08:15:49;6.72;;;2.58;;
23142;SDS011;11740;51.168;4.112;2023-12-22T08:18:17;9.23;;;2.65;;
23142;SDS011;11740;51.168;4.112;2023-12-22T08:20:44;6.72;;;2.60;;
23142;SDS011;11740;51.168;4.112;2023-12-22T08:23:14;6.93;;;3.20;;
23142;SDS011;11740;51.168;4.112;2023-12-22T08:25:42;7.00;;;3.25;;
23142;SDS011;11740;51.168;4.112;2023-12-22T08:28:10;7.78;;;2.90;;
23142;SDS011;11740;51.168;4.112;2023-12-22T08:30:39;11.70;;;4.07;;
23142;SDS011;11740;51.168;4.112;2023-12-22T08:33:06;9.68;;;2.72;;
23142;SDS011;11740;51.168;4.112;2023-12-22T08:35:33;6.10;;;2.70;;
23142;SDS011;11740;51.168;4.112;2023-12-22T08:38:01;8.07;;;2.60;;
23142;SDS011;11740;51.168;4.112;2023-12-22T08:40:29;8.63;;;2.65;;
23142;SDS011;11740;51.168;4.112;2023-12-22T08:42:56;8.05;;;2.83;;
23142;SDS011;11740;51.168;4.112;2023-12-22T08:45:27;9.20;;;3.63;;
23142;SDS011;11740;51.168;4.112;2023-12-22T08:47:55;6.25;;;2.60;;
23142;SDS011;11740;51.168;4.112;2023-12-22T08:50:23;8.15;;;2.70;;
23142;SDS011;11740;51.168;4.112;2023-12-22T08:52:50;6.40;;;2.08;;
23142;SDS011;11740;51.168;4.112;2023-12-22T08:55:17;9.45;;;2.13;;
23142;SDS011;11740;51.168;4.112;2023-12-22T08:57:45;10.95;;;3.08;;
23142;SDS011;11740;51.168;4.112;2023-12-22T09:00:24;9.20;;;2.47;;
23142;SDS011;11740;51.168;4.112;2023-12-22T09:02:51;7.93;;;2.60;;
23142;SDS011;11740;51.168;4.112;2023-12-22T09:05:18;11.45;;;2.63;;
23142;SDS011;11740;51.168;4.112;2023-12-22T09:07:47;7.75;;;1.77;;
23142;SDS011;11740;51.168;4.112;2023-12-22T09:10:14;7.35;;;1.50;;
23142;SDS011;11740;51.168;4.112;2023-12-22T09:12:41;6.07;;;1.42;;
23142;SDS011;11740;51.168;4.112;2023-12-22T09:15:08;7.95;;;1.65;;
23142;SDS011;11740;51.168;4.112;2023-12-22T09:17:35;4.15;;;1.27;;
23142;SDS011;11740;51.168;4.112;2023-12-22T09:20:02;6.38;;;1.60;;
23142;SDS011;11740;51.168;4.112;2023-12-22T09:22:29;7.85;;;1.63;;
23142;SDS011;11740;51.168;4.112;2023-12-22T09:24:57;8.27;;;1.70;;
23142;SDS011;11740;51.168;4.112;2023-12-22T09:27:23;9.65;;;1.52;;
23142;SDS011;11740;51.168;4.112;2023-12-22T09:29:55;9.80;;;1.50;;
23142;SDS011;11740;51.168;4.112;2023-12-22T09:32:22;6.32;;;1.73;;
23142;SDS011;11740;51.168;4.112;2023-12-22T09:34:49;9.82;;;1.60;;
23142;SDS011;11740;51.168;4.112;2023-12-22T09:37:16;6.93;;;1.25;;
23142;SDS011;11740;51.168;4.112;2023-12-22T09:39:42;8.30;;;1.60;;
23142;SDS011;11740;51.168;4.112;2023-12-22T09:42:09;6.57;;;1.50;;
23142;SDS011;11740;51.168;4.112;2023-12-22T09:44:36;8.50;;;1.42;;
23142;SDS011;11740;51.168;4.112;2023-12-22T09:47:08;3.67;;;1.17;;
23142;SDS011;11740;51.168;4.112;2023-12-22T09:49:38;7.25;;;1.40;;
23142;SDS011;11740;51.168;4.112;2023-12-22T09:52:07;7.88;;;1.50;;
23142;SDS011;11740;51.168;4.112;2023-12-22T09:54:35;12.30;;;1.50;;
23142;SDS011;11740;51.168;4.112;2023-12-22T09:57:04;8.60;;;1.42;;
23142;SDS011;11740;51.168;4.112;2023-12-22T09:59:48;8.07;;;1.30;;
23142;SDS011;11740;51.168;4.112;2023-12-22T10:02:17;7.82;;;1.60;;
23142;SDS011;11740;51.168;4.112;2023-12-22T10:04:45;5.97;;;1.40;;
23142;SDS011;11740;51.168;4.112;2023-12-22T10:07:12;9.80;;;1.73;;
23142;SDS011;11740;51.168;4.112;2023-12-22T10:09:41;8.68;;;1.30;;
23142;SDS011;11740;51.168;4.112;2023-12-22T10:12:09;6.97;;;1.40;;
23142;SDS011;11740;51.168;4.112;2023-12-22T10:14:39;5.00;;;1.33;;
23142;SDS011;11740;51.168;4.112;2023-12-22T10:17:07;7.63;;;1.25;;
23142;SDS011;11740;51.168;4.112;2023-12-22T10:19:34;10.57;;;1.50;;
23142;SDS011;11740;51.168;4.112;2023-12-22T10:22:01;5.57;;;1.30;;
23142;SDS011;11740;51.168;4.112;2023-12-22T10:24:38;9.88;;;1.50;;
23142;SDS011;11740;51.168;4.112;2023-12-22T10:27:09;7.35;;;1.30;;
23142;SDS011;11740;51.168;4.112;2023-12-22T10:29:37;10.32;;;1.42;;
23142;SDS011;11740;51.168;4.112;2023-12-22T10:32:04;8.77;;;1.73;;
23142;SDS011;11740;51.168;4.112;2023-12-22T10:34:34;5.55;;;1.08;;
23142;SDS011;11740;51.168;4.112;2023-12-22T10:37:01;6.72;;;1.10;;
23142;SDS011;11740;51.168;4.112;2023-12-22T10:39:29;6.43;;;1.48;;
23142;SDS011;11740;51.168;4.112;2023-12-22T10:41:57;7.50;;;1.50;;
23142;SDS011;11740;51.168;4.112;2023-12-22T10:44:25;8.10;;;1.60;;
23142;SDS011;11740;51.168;4.112;2023-12-22T10:46:52;9.07;;;1.60;;
23142;SDS011;11740;51.168;4.112;2023-12-22T10:49:23;3.97;;;1.15;;
23142;SDS011;11740;51.168;4.112;2023-12-22T10:51:51;7.45;;;1.30;;
23142;SDS011;11740;51.168;4.112;2023-12-22T10:54:19;8.13;;;1.25;;
23142;SDS011;11740;51.168;4.112;2023-12-22T10:56:46;8.73;;;1.30;;
23142;SDS011;11740;51.168;4.112;2023-12-22T10:59:16;7.35;;;1.25;;
23142;SDS011;11740;51.168;4.112;2023-12-22T11:01:45;5.60;;;1.23;;
23142;SDS011;11740;51.168;4.112;2023-12-22T11:04:17;5.47;;;1.25;;
23142;SDS011;11740;51.168;4.112;2023-12-22T11:06:47;8.13;;;1.30;;
23142;SDS011;11740;51.168;4.112;2023-12-22T11:09:18;8.65;;;1.23;;
23142;SDS011;11740;51.168;4.112;2023-12-22T11:11:49;8.27;;;1.30;;
23142;SDS011;11740;51.168;4.112;2023-12-22T11:14:17;4.55;;;1.20;;
23142;SDS011;11740;51.168;4.112;2023-12-22T11:16:46;7.53;;;1.27;;
23142;SDS011;11740;51.168;4.112;2023-12-22T11:19:15;7.30;;;1.02;;
23142;SDS011;11740;51.168;4.112;2023-12-22T11:21:42;9.27;;;1.45;;
23142;SDS011;11740;51.168;4.112;2023-12-22T11:24:11;5.95;;;1.50;;
23142;SDS011;11740;51.168;4.112;2023-12-22T11:26:41;5.60;;;1.10;;
23142;SDS011;11740;51.168;4.112;2023-12-22T11:29:09;4.60;;;0.93;;
23142;SDS011;11740;51.168;4.112;2023-12-22T11:31:36;6.95;;;1.15;;
23142;SDS011;11740;51.168;4.112;2023-12-22T11:34:05;5.47;;;1.13;;
23142;SDS011;11740;51.168;4.112;2023-12-22T11:36:40;6.45;;;1.40;;
23142;SDS011;11740;51.168;4.112;2023-12-22T11:39:09;6.32;;;1.13;;
23142;SDS011;11740;51.168;4.112;2023-12-22T11:41:36;8.25;;;1.80;;
23142;SDS011;11740;51.168;4.112;2023-12-22T11:44:05;5.40;;;1.00;;
23142;SDS011;11740;51.168;4.112;2023-12-22T11:46:33;7.68;;;1.33;;
23142;SDS011;11740;51.168;4.112;2023-12-22T11:49:01;5.25;;;1.20;;
23142;SDS011;11740;51.168;4.112;2023-12-22T11:51:32;8.70;;;1.20;;
23142;SDS011;11740;51.168;4.112;2023-12-22T11:54:02;5.43;;;1.17;;
23142;SDS011;11740;51.168;4.112;2023-12-22T11:56:29;5.90;;;1.10;;
23142;SDS011;11740;51.168;4.112;2023-12-22T11:58:57;7.22;;;1.38;;
23142;SDS011;11740;51.168;4.112;2023-12-22T12:01:26;9.43;;;1.15;;
23142;SDS011;11740;51.168;4.112;2023-12-22T12:04:00;8.52;;;1.42;;
23142;SDS011;11740;51.168;4.112;2023-12-22T12:06:31;5.88;;;1.08;;
23142;SDS011;11740;51.168;4.112;2023-12-22T12:09:00;6.07;;;1.35;;
23142;SDS011;11740;51.168;4.112;2023-12-22T12:14:33;8.10;;;1.27;;
23142;SDS011;11740;51.168;4.112;2023-12-22T12:17:07;8.13;;;1.50;;
23142;SDS011;11740;51.168;4.112;2023-12-22T12:19:39;7.55;;;1.73;;
23142;SDS011;11740;51.168;4.112;2023-12-22T12:22:09;7.30;;;1.55;;
23142;SDS011;11740;51.168;4.112;2023-12-22T12:24:39;7.60;;;1.52;;
23142;SDS011;11740;51.168;4.112;2023-12-22T12:27:06;7.65;;;2.00;;
23142;SDS011;11740;51.168;4.112;2023-12-22T12:29:34;12.13;;;1.88;;
23142;SDS011;11740;51.168;4.112;2023-12-22T12:32:05;8.98;;;1.70;;
23142;SDS011;11740;51.168;4.112;2023-12-22T12:34:32;10.55;;;1.40;;
23142;SDS011;11740;51.168;4.112;2023-12-22T12:37:00;6.50;;;1.20;;
23142;SDS011;11740;51.168;4.112;2023-12-22T12:39:30;6.82;;;1.35;;
23142;SDS011;11740;51.168;4.112;2023-12-22T12:41:59;7.15;;;1.63;;
23142;SDS011;11740;51.168;4.112;2023-12-22T12:44:30;7.85;;;1.25;;
23142;SDS011;11740;51.168;4.112;2023-12-22T12:47:10;11.65;;;1.52;;
23142;SDS011;11740;51.168;4.112;2023-12-22T12:49:41;6.95;;;1.42;;
23142;SDS011;11740;51.168;4.112;2023-12-22T12:52:14;5.35;;;1.50;;
23142;SDS011;11740;51.168;4.112;2023-12-22T12:54:42;9.77;;;1.80;;
23142;SDS011;11740;51.168;4.112;2023-12-22T12:57:13;8.73;;;1.70;;
23142;SDS011;11740;51.168;4.112;2023-12-22T12:59:48;9.52;;;1.70;;
23142;SDS011;11740;51.168;4.112;2023-12-22T13:02:16;5.47;;;1.37;;
23142;SDS011;11740;51.168;4.112;2023-12-22T13:04:44;5.90;;;1.23;;
23142;SDS011;11740;51.168;4.112;2023-12-22T13:07:11;12.32;;;1.60;;
23142;SDS011;11740;51.168;4.112;2023-12-22T13:09:41;8.95;;;1.50;;
23142;SDS011;11740;51.168;4.112;2023-12-22T13:12:08;8.48;;;1.40;;
23142;SDS011;11740;51.168;4.112;2023-12-22T13:14:36;11.02;;;1.85;;
23142;SDS011;11740;51.168;4.112;2023-12-22T13:17:03;9.02;;;1.35;;
23142;SDS011;11740;51.168;4.112;2023-12-22T13:19:30;11.10;;;1.65;;
23142;SDS011;11740;51.168;4.112;2023-12-22T13:21:58;7.93;;;1.35;;
23142;SDS011;11740;51.168;4.112;2023-12-22T13:24:27;8.45;;;1.70;;
23142;SDS011;11740;51.168;4.112;2023-12-22T13:27:02;7.35;;;1.25;;
23142;SDS011;11740;51.168;4.112;2023-12-22T13:29:42;8.07;;;1.85;;
23142;SDS011;11740;51.168;4.112;2023-12-22T13:32:17;7.07;;;1.30;;
23142;SDS011;11740;51.168;4.112;2023-12-22T13:34:48;11.10;;;1.80;;
23142;SDS011;11740;51.168;4.112;2023-12-22T13:37:17;9.43;;;1.70;;
23142;SDS011;11740;51.168;4.112;2023-12-22T13:39:45;10.57;;;1.67;;
23142;SDS011;11740;51.168;4.112;2023-12-22T13:42:13;8.82;;;1.42;;
23142;SDS011;11740;51.168;4.112;2023-12-22T13:44:43;8.32;;;1.42;;
23142;SDS011;11740;51.168;4.112;2023-12-22T13:47:13;8.52;;;1.55;;
23142;SDS011;11740;51.168;4.112;2023-12-22T13:49:41;10.38;;;1.70;;
23142;SDS011;11740;51.168;4.112;2023-12-22T13:52:28;11.45;;;1.38;;
23142;SDS011;11740;51.168;4.112;2023-12-22T13:55:01;7.05;;;1.50;;
23142;SDS011;11740;51.168;4.112;2023-12-22T13:57:29;8.07;;;1.77;;
23142;SDS011;11740;51.168;4.112;2023-12-22T13:59:56;10.68;;;1.90;;
23142;SDS011;11740;51.168;4.112;2023-12-22T14:02:23;7.85;;;1.52;;
23142;SDS011;11740;51.168;4.112;2023-12-22T14:04:50;9.80;;;1.80;;
23142;SDS011;11740;51.168;4.112;2023-12-22T14:07:18;9.88;;;1.63;;
23142;SDS011;11740;51.168;4.112;2023-12-22T14:09:45;8.55;;;1.70;;
23142;SDS011;11740;51.168;4.112;2023-12-22T14:12:12;7.38;;;1.63;;
23142;SDS011;11740;51.168;4.112;2023-12-22T14:14:49;7.30;;;1.38;;
23142;SDS011;11740;51.168;4.112;2023-12-22T14:17:16;5.82;;;1.45;;
23142;SDS011;11740;51.168;4.112;2023-12-22T14:19:43;10.10;;;1.88;;
23142;SDS011;11740;51.168;4.112;2023-12-22T14:22:10;5.82;;;1.20;;
23142;SDS011;11740;51.168;4.112;2023-12-22T14:24:37;7.35;;;1.73;;
23142;SDS011;11740;51.168;4.112;2023-12-22T14:27:04;9.13;;;1.42;;
23142;SDS011;11740;51.168;4.112;2023-12-22T14:29:31;6.22;;;1.52;;
23142;SDS011;11740;51.168;4.112;2023-12-22T14:31:59;8.88;;;1.80;;
23142;SDS011;11740;51.168;4.112;2023-12-22T14:34:26;7.07;;;1.75;;
23142;SDS011;11740;51.168;4.112;2023-12-22T14:36:54;7.45;;;1.38;;
23142;SDS011;11740;51.168;4.112;2023-12-22T14:39:21;6.47;;;1.30;;
23142;SDS011;11740;51.168;4.112;2023-12-22T14:41:48;9.63;;;1.67;;
23142;SDS011;11740;51.168;4.112;2023-12-22T14:44:15;7.30;;;1.88;;
23142;SDS011;11740;51.168;4.112;2023-12-22T14:46:42;10.40;;;1.48;;
23142;SDS011;11740;51.168;4.112;2023-12-22T14:49:09;5.78;;;1.58;;
23142;SDS011;11740;51.168;4.112;2023-12-22T14:51:39;10.65;;;1.65;;
23142;SDS011;11740;51.168;4.112;2023-12-22T14:54:06;6.90;;;1.55;;
23142;SDS011;11740;51.168;4.112;2023-12-22T14:56:37;10.27;;;1.77;;